Munte, Belgium
Current Conditions -  °F | °C
As of 7:25 PM on Thursday 23 Oct 2014 (Local Time) from EBCV Reporting Station
Broken Clouds Broken Clouds  
Wind Chill: 55°   Ceiling: 4100
Heat Index: 55°   Visibility: 6mi
Dew Point: 48°   Wind: 9mph
Humidity: 77%   Direction: 210°SSW
Pressure: 30.18"   Gusts: NA
Location:  50.95°N, 3.74°E
Report Text: EBCV 231725Z AUTO 21008KT 9999 BKN041/// 13/09 Q1022 BLU
Loading
Personal Weather Stations






























Interactive Weather Map
Tropical Storm Tracking
New forecast layout! Learn more

10-Day Weather Forecast

Advertisements
Track Severe Weather on mobile